SBSG

Governador Aluízio Alves International Airport

Natal, Brazil
TAF SBSG 190100Z 1906/2006 20005KT 9999 SCT018 TN23/1908Z TX30/1915Z BECMG 1909/1911 14015KT BKN018 BECMG 1916/1917 SCT025 BECMG 1921/1922 14008KT RMK PEA
Issued Valid From Valid To
Oct-19 @ 01:00 UTC
(8 hours ago)
Oct-19 @ 06:00 UTC
(3 hours ago)
Oct-20 @ 06:00 UTC
(in 21 hours)
Expired Click to View Oct-19 @ 06:00 to Oct-19 @ 09:00
TAF SBSG 190100Z 1906/2006 20005KT 9999 SCT018 TN23/1908Z TX30/1915Z
Wind Visibility Clouds
200° at 5 knots 10,000+ meters
  • Scattered at 1,800' AGL
Becoming Oct-19 @ 09:00 to Oct-19 @ 16:00
BECMG 1909/1911 14015KT BKN018
Wind Visibility Clouds
140° at 15 knots 10,000+ meters
  • Broken at 1,800' AGL
Becoming Oct-19 @ 16:00 to Oct-19 @ 21:00
BECMG 1916/1917 SCT025
Wind Visibility Clouds
140° at 15 knots 10,000+ meters
  • Scattered at 2,500' AGL
Becoming Oct-19 @ 21:00 to Oct-20 @ 06:00
BECMG 1921/1922 14008KT RMK PEA
Wind Visibility Clouds
140° at 8 knots 10,000+ meters
  • Scattered at 2,500' AGL
TAF SBSG 190100Z 1906/2006 20005KT 9999 SCT018 TN23/1908Z TX30/1915Z BECMG 1909/1911 14015KT BKN018 BECMG 1916/1917 SCT025 BECMG 1921/1922 14008KT RMK PEA
Issued Oct-19 @ 01:00 UTC
(8 hours ago)
Valid From Oct-19 @ 06:00 UTC
(3 hours ago)
Valid To Oct-20 @ 06:00 UTC
(in 21 hours)
Oct-19 @ 06:00 - Oct-19 @ 09:00
Wind Visibility
200° at 5 knots 10,000+ meters
Clouds
  • Scattered at 1,800' AGL
Becoming Oct-19 @ 09:00 - Oct-19 @ 16:00
Wind Visibility
140° at 15 knots 10,000+ meters
Clouds
  • Broken at 1,800' AGL
Becoming Oct-19 @ 16:00 - Oct-19 @ 21:00
Wind Visibility
140° at 15 knots 10,000+ meters
Clouds
  • Scattered at 2,500' AGL
Becoming Oct-19 @ 21:00 - Oct-20 @ 06:00
Wind Visibility
140° at 8 knots 10,000+ meters
Clouds
  • Scattered at 2,500' AGL